Time;durP1;ratioP1;P1;durP2;ratioP2;P2;SDS_P1;SDS_P2;PMS_P1;PMS_P2;Temp;Humidity;BMP_temperature;BMP_pressure;BME280_temperature;BME280_humidity;BME280_pressure;Samples;Min_cycle;Max_cycle;Signal;HPM_P1;HPM_P2
2022/07/30 00:01:38;;;;;;;8.30;6.07;;;;;;;;;;4917911;29;20035;-40
2022/07/30 00:04:04;;;;;;;6.80;6.15;;;;;;;;;;4917849;29;20029;-41
2022/07/30 00:06:29;;;;;;;11.13;6.63;;;;;;;;;;4917772;29;20051;-41
2022/07/30 00:08:54;;;;;;;7.00;5.82;;;;;;;;;;4917735;29;20028;-41
2022/07/30 00:11:20;;;;;;;7.50;6.20;;;;;;;;;;4917251;29;20032;-40
2022/07/30 00:13:46;;;;;;;8.88;5.90;;;;;;;;;;4917663;29;20033;-41
2022/07/30 00:16:12;;;;;;;6.45;5.80;;;;;;;;;;4917558;29;20028;-40
2022/07/30 00:18:37;;;;;;;6.30;5.60;;;;;;;;;;4917276;29;20035;-42
2022/07/30 00:21:03;;;;;;;6.85;5.95;;;;;;;;;;4917207;29;20072;-45
2022/07/30 00:23:28;;;;;;;8.05;6.10;;;;;;;;;;4917440;29;20031;-41
2022/07/30 00:25:53;;;;;;;6.70;6.00;;;;;;;;;;4917466;29;20119;-41
2022/07/30 00:28:19;;;;;;;6.78;6.13;;;;;;;;;;4917172;29;20032;-41
2022/07/30 00:30:44;;;;;;;7.20;6.15;;;;;;;;;;4917118;29;20035;-41
2022/07/30 00:33:10;;;;;;;9.52;5.93;;;;;;;;;;4917043;29;20495;-41
2022/07/30 00:35:35;;;;;;;7.50;6.00;;;;;;;;;;4917101;29;20036;-41
2022/07/30 00:38:00;;;;;;;6.45;5.85;;;;;;;;;;4916974;29;20028;-41
2022/07/30 00:40:26;;;;;;;11.63;6.57;;;;;;;;;;4917260;29;20039;-42
2022/07/30 00:42:51;;;;;;;8.68;5.80;;;;;;;;;;4916912;29;20396;-41
2022/07/30 00:45:17;;;;;;;8.68;5.90;;;;;;;;;;4916794;29;20146;-41
2022/07/30 00:47:42;;;;;;;7.55;5.82;;;;;;;;;;4916100;29;20040;-44
2022/07/30 00:50:10;;;;;;;6.25;5.60;;;;;;;;;;4916273;29;20035;-42
2022/07/30 00:52:39;;;;;;;7.20;5.47;;;;;;;;;;4916316;29;20099;-45
2022/07/30 00:55:07;;;;;;;6.80;5.80;;;;;;;;;;4916023;29;20029;-41
2022/07/30 00:57:33;;;;;;;6.70;5.90;;;;;;;;;;4915920;29;20040;-44
2022/07/30 00:59:58;;;;;;;8.00;6.15;;;;;;;;;;4916217;29;20028;-41
2022/07/30 01:02:23;;;;;;;9.18;6.18;;;;;;;;;;4915984;29;20021;-43
2022/07/30 01:04:49;;;;;;;8.50;6.60;;;;;;;;;;4915883;29;20029;-43
2022/07/30 01:07:14;;;;;;;8.57;6.15;;;;;;;;;;4916118;29;20032;-42
2022/07/30 01:09:40;;;;;;;7.45;6.53;;;;;;;;;;4915997;29;20441;-43
2022/07/30 01:12:07;;;;;;;8.68;6.78;;;;;;;;;;4916053;29;20024;-45
2022/07/30 01:14:36;;;;;;;8.75;6.18;;;;;;;;;;4916020;29;20032;-42
2022/07/30 01:17:03;;;;;;;12.32;6.68;;;;;;;;;;4915693;29;20024;-42
2022/07/30 01:19:50;;;;;;;17.42;6.85;;;;;;;;;;4915927;29;20063;-45
2022/07/30 01:22:25;;;;;;;8.80;6.78;;;;;;;;;;4915769;29;20433;-42
2022/07/30 01:24:55;;;;;;;14.73;7.57;;;;;;;;;;4915886;29;20036;-42
2022/07/30 01:27:22;;;;;;;6.90;6.20;;;;;;;;;;4914697;29;20079;-42
2022/07/30 01:29:49;;;;;;;10.52;7.07;;;;;;;;;;4915690;29;20429;-42
2022/07/30 01:32:16;;;;;;;7.10;6.30;;;;;;;;;;4915764;29;20047;-42
2022/07/30 01:34:43;;;;;;;9.52;6.35;;;;;;;;;;4915373;29;20028;-42
2022/07/30 01:37:10;;;;;;;8.95;6.32;;;;;;;;;;4915656;29;20032;-42
2022/07/30 01:39:38;;;;;;;7.82;7.03;;;;;;;;;;4915673;29;20486;-42
2022/07/30 01:42:07;;;;;;;10.00;7.07;;;;;;;;;;4915645;29;20032;-41
2022/07/30 01:44:33;;;;;;;12.88;7.63;;;;;;;;;;4915593;29;20034;-42
2022/07/30 01:47:00;;;;;;;12.90;7.03;;;;;;;;;;4875133;29;1196815;-41
2022/07/30 01:49:27;;;;;;;8.38;7.35;;;;;;;;;;4916081;29;20051;-42
2022/07/30 01:51:53;;;;;;;9.45;7.45;;;;;;;;;;4915925;29;20485;-42
2022/07/30 01:54:22;;;;;;;8.27;7.38;;;;;;;;;;4916021;29;20024;-47
2022/07/30 01:56:50;;;;;;;9.50;7.45;;;;;;;;;;4916319;29;20043;-42
2022/07/30 01:59:18;;;;;;;8.32;7.15;;;;;;;;;;4916293;29;20056;-43
2022/07/30 02:01:44;;;;;;;10.95;7.70;;;;;;;;;;4916056;29;20044;-43
2022/07/30 02:04:10;;;;;;;10.32;7.20;;;;;;;;;;4916059;29;20024;-42
2022/07/30 02:06:45;;;;;;;8.50;7.15;;;;;;;;;;4916241;29;20047;-41
2022/07/30 02:09:14;;;;;;;9.35;7.35;;;;;;;;;;4916027;29;20032;-45
2022/07/30 02:14:48;;;;;;;9.20;7.38;;;;;;;;;;4915928;29;20540;-43
2022/07/30 02:17:19;;;;;;;11.23;8.02;;;;;;;;;;4919347;29;20047;-42
2022/07/30 02:19:49;;;;;;;11.10;7.57;;;;;;;;;;4919440;29;20052;-41
2022/07/30 02:22:17;;;;;;;;;;;;;;;;;;4920294;29;20119;-43
2022/07/30 02:24:43;;;;;;;9.35;7.18;;;;;;;;;;4919451;29;19911;-42
2022/07/30 02:27:27;;;;;;;9.85;7.70;;;;;;;;;;4919662;29;20032;-44
2022/07/30 02:29:56;;;;;;;7.43;6.15;;;;;;;;;;4919533;29;20381;-41
2022/07/30 02:32:23;;;;;;;9.73;7.40;;;;;;;;;;4919311;29;20043;-45
2022/07/30 02:34:53;;;;;;;9.90;5.88;;;;;;;;;;4919247;29;20124;-41
2022/07/30 02:37:23;;;;;;;6.18;5.57;;;;;;;;;;4919203;29;20020;-41
2022/07/30 02:39:51;;;;;;;11.27;8.48;;;;;;;;;;4919187;29;20043;-45
2022/07/30 02:42:19;;;;;;;10.32;7.25;;;;;;;;;;4919171;29;20029;-42
2022/07/30 02:44:45;;;;;;;8.50;7.32;;;;;;;;;;4917851;29;20028;-42
2022/07/30 02:47:12;;;;;;;8.05;5.90;;;;;;;;;;4918896;29;20056;-44
2022/07/30 02:49:39;;;;;;;10.38;6.30;;;;;;;;;;4918895;29;20527;-42
2022/07/30 02:52:07;;;;;;;10.60;7.95;;;;;;;;;;4919239;29;20422;-41
2022/07/30 02:54:36;;;;;;;9.80;8.43;;;;;;;;;;4919160;29;20028;-42
2022/07/30 02:57:02;;;;;;;10.63;7.65;;;;;;;;;;4919061;29;20033;-41
2022/07/30 02:59:30;;;;;;;7.90;6.75;;;;;;;;;;4919001;29;20043;-41
2022/07/30 03:01:56;;;;;;;6.25;5.53;;;;;;;;;;4918640;29;20032;-42
2022/07/30 03:04:24;;;;;;;9.35;7.57;;;;;;;;;;4918917;29;20051;-46
2022/07/30 03:06:50;;;;;;;9.68;7.65;;;;;;;;;;4918885;29;20115;-41
2022/07/30 03:09:16;;;;;;;10.07;6.72;;;;;;;;;;4918526;29;20115;-41
2022/07/30 03:11:43;;;;;;;11.00;8.27;;;;;;;;;;4918465;29;20489;-41
2022/07/30 03:14:10;;;;;;;10.20;6.82;;;;;;;;;;4918467;29;20032;-41
2022/07/30 03:16:37;;;;;;;9.05;6.95;;;;;;;;;;4918421;29;20024;-41
2022/07/30 03:19:08;;;;;;;9.65;7.53;;;;;;;;;;4918364;29;20032;-41
2022/07/30 03:21:35;;;;;;;8.75;7.85;;;;;;;;;;4918486;29;20035;-41
2022/07/30 03:24:02;;;;;;;10.98;8.68;;;;;;;;;;4918443;29;20088;-41
2022/07/30 03:26:29;;;;;;;9.80;7.15;;;;;;;;;;4918522;29;20028;-43
2022/07/30 03:28:55;;;;;;;12.52;8.05;;;;;;;;;;4918573;29;20051;-41
2022/07/30 03:31:21;;;;;;;9.18;6.78;;;;;;;;;;4918489;29;20452;-41
2022/07/30 03:33:47;;;;;;;10.35;5.35;;;;;;;;;;4918478;29;20116;-41
2022/07/30 03:36:13;;;;;;;7.57;6.50;;;;;;;;;;4918159;29;20429;-41
2022/07/30 03:38:40;;;;;;;9.88;6.90;;;;;;;;;;4918133;29;20029;-41
2022/07/30 03:41:07;;;;;;;10.60;7.85;;;;;;;;;;4918088;29;20385;-41
2022/07/30 03:43:33;;;;;;;6.20;4.95;;;;;;;;;;4918108;29;20111;-44
2022/07/30 03:46:01;;;;;;;12.45;5.05;;;;;;;;;;4917954;29;20052;-41
2022/07/30 03:48:27;;;;;;;6.32;5.72;;;;;;;;;;4917941;29;20032;-41
2022/07/30 03:50:53;;;;;;;10.82;7.20;;;;;;;;;;4917819;29;20040;-41
2022/07/30 03:53:22;;;;;;;10.45;6.50;;;;;;;;;;4917882;29;20024;-41
2022/07/30 03:55:48;;;;;;;10.95;5.95;;;;;;;;;;4917850;29;20397;-41
2022/07/30 03:58:13;;;;;;;6.30;5.43;;;;;;;;;;4917824;29;20024;-42
2022/07/30 04:00:40;;;;;;;6.57;5.88;;;;;;;;;;4918043;29;20491;-41
2022/07/30 04:03:05;;;;;;;6.80;6.10;;;;;;;;;;4917928;29;20030;-41
2022/07/30 04:05:30;;;;;;;7.43;5.05;;;;;;;;;;4917911;29;20043;-42
2022/07/30 04:07:56;;;;;;;5.90;5.07;;;;;;;;;;4917803;29;20024;-41
2022/07/30 04:10:21;;;;;;;9.52;5.82;;;;;;;;;;4917518;29;20028;-41
2022/07/30 04:12:46;;;;;;;4.07;3.67;;;;;;;;;;4917450;29;20159;-42
2022/07/30 04:15:12;;;;;;;14.02;5.20;;;;;;;;;;4917712;29;20032;-42
2022/07/30 04:17:46;;;;;;;10.98;4.65;;;;;;;;;;4917427;29;20032;-42
2022/07/30 04:20:19;;;;;;;4.82;4.32;;;;;;;;;;4917719;29;20024;-45
2022/07/30 04:22:45;;;;;;;5.45;4.22;;;;;;;;;;4917291;29;20552;-45
2022/07/30 04:25:13;;;;;;;5.97;4.07;;;;;;;;;;4917264;29;20036;-42
2022/07/30 04:27:39;;;;;;;5.97;4.03;;;;;;;;;;4917449;29;20389;-41
2022/07/30 04:30:06;;;;;;;5.80;5.22;;;;;;;;;;4917278;29;20028;-41
2022/07/30 04:32:32;;;;;;;4.43;4.03;;;;;;;;;;4917354;29;20434;-46
2022/07/30 04:34:57;;;;;;;5.72;4.25;;;;;;;;;;4917152;29;20789;-41
2022/07/30 04:37:25;;;;;;;6.88;4.30;;;;;;;;;;4917250;29;20059;-43
2022/07/30 04:39:53;;;;;;;9.23;4.45;;;;;;;;;;4916580;29;20027;-43
2022/07/30 04:42:20;;;;;;;5.10;4.35;;;;;;;;;;4916862;29;20469;-41
2022/07/30 04:44:45;;;;;;;8.85;4.75;;;;;;;;;;4917244;29;20024;-42
2022/07/30 04:47:11;;;;;;;4.82;3.67;;;;;;;;;;4916588;29;20058;-41
2022/07/30 04:49:37;;;;;;;4.35;3.95;;;;;;;;;;4917141;29;20048;-43
2022/07/30 04:52:04;;;;;;;11.05;3.70;;;;;;;;;;4917016;29;20064;-42
2022/07/30 04:54:39;;;;;;;8.73;4.80;;;;;;;;;;4917078;29;20036;-41
2022/07/30 04:57:05;;;;;;;6.70;4.35;;;;;;;;;;4916792;29;20020;-42
2022/07/30 04:59:31;;;;;;;10.63;5.65;;;;;;;;;;4916667;29;20043;-41
2022/07/30 05:01:58;;;;;;;6.93;5.97;;;;;;;;;;4916706;29;20036;-41
2022/07/30 05:04:25;;;;;;;8.80;4.50;;;;;;;;;;4916659;29;20105;-43
2022/07/30 05:06:52;;;;;;;9.25;5.80;;;;;;;;;;4916907;29;20483;-41
2022/07/30 05:09:18;;;;;;;6.25;4.70;;;;;;;;;;4916503;29;20043;-41
2022/07/30 05:11:54;;;;;;;3.80;3.47;;;;;;;;;;4916690;29;20024;-42
2022/07/30 05:14:20;;;;;;;8.43;4.78;;;;;;;;;;4916459;29;20134;-42
2022/07/30 05:16:46;;;;;;;7.25;5.22;;;;;;;;;;4916502;29;20450;-42
2022/07/30 05:19:12;;;;;;;5.30;3.67;;;;;;;;;;4916712;29;20072;-42
2022/07/30 05:21:37;;;;;;;4.88;4.20;;;;;;;;;;4916404;29;20036;-43
2022/07/30 05:24:03;;;;;;;4.85;4.35;;;;;;;;;;4915154;29;20032;-43
2022/07/30 05:26:30;;;;;;;4.40;4.00;;;;;;;;;;4916377;29;20103;-44
2022/07/30 05:28:55;;;;;;;7.22;4.90;;;;;;;;;;4916579;29;20079;-45
2022/07/30 05:31:22;;;;;;;8.45;4.15;;;;;;;;;;4916482;29;20087;-45
2022/07/30 05:33:47;;;;;;;4.93;3.83;;;;;;;;;;4916534;29;20127;-43
2022/07/30 05:36:13;;;;;;;10.57;4.90;;;;;;;;;;4916321;29;20553;-45
2022/07/30 05:38:38;;;;;;;6.28;4.30;;;;;;;;;;4916207;29;20024;-46
2022/07/30 05:41:04;;;;;;;6.03;5.22;;;;;;;;;;4916223;29;20115;-42
2022/07/30 05:43:29;;;;;;;5.93;4.82;;;;;;;;;;4916468;29;20110;-44
2022/07/30 05:45:55;;;;;;;5.20;4.32;;;;;;;;;;4915868;29;20048;-47
2022/07/30 05:48:20;;;;;;;5.05;4.55;;;;;;;;;;4916392;29;20040;-45
2022/07/30 05:50:45;;;;;;;6.13;4.78;;;;;;;;;;4917487;29;20048;-46
2022/07/30 05:53:11;;;;;;;6.07;5.38;;;;;;;;;;4919965;29;20488;-46
2022/07/30 05:55:36;;;;;;;6.55;4.47;;;;;;;;;;4920137;29;20032;-45
2022/07/30 05:58:02;;;;;;;7.88;5.22;;;;;;;;;;4920156;29;20020;-42
2022/07/30 06:00:27;;;;;;;6.25;4.68;;;;;;;;;;4919917;29;20032;-45
2022/07/30 06:02:52;;;;;;;4.78;4.18;;;;;;;;;;4919837;29;20110;-42
2022/07/30 06:05:18;;;;;;;6.97;4.43;;;;;;;;;;4919791;29;20059;-45
2022/07/30 06:07:44;;;;;;;5.57;3.70;;;;;;;;;;4919705;29;20032;-47
2022/07/30 06:10:09;;;;;;;4.65;3.40;;;;;;;;;;4919570;29;20031;-45
2022/07/30 06:12:35;;;;;;;7.82;4.75;;;;;;;;;;4919724;29;20118;-45
2022/07/30 06:15:00;;;;;;;7.55;5.15;;;;;;;;;;4919541;29;20035;-42
2022/07/30 06:17:25;;;;;;;6.43;4.75;;;;;;;;;;4919865;29;20067;-47
2022/07/30 06:19:52;;;;;;;8.80;3.92;;;;;;;;;;4919834;29;20111;-42
2022/07/30 06:22:18;;;;;;;7.00;4.05;;;;;;;;;;4919495;29;20084;-42
2022/07/30 06:24:43;;;;;;;3.92;3.58;;;;;;;;;;4919457;29;20029;-42
2022/07/30 06:27:09;;;;;;;9.02;4.07;;;;;;;;;;4919406;29;20074;-44
2022/07/30 06:29:35;;;;;;;4.18;3.78;;;;;;;;;;4919602;29;20032;-43
2022/07/30 06:32:00;;;;;;;5.68;5.10;;;;;;;;;;4919508;29;20036;-42
2022/07/30 06:34:25;;;;;;;4.53;4.13;;;;;;;;;;4919252;29;20055;-47
2022/07/30 06:36:51;;;;;;;7.75;5.00;;;;;;;;;;4918036;29;20032;-45
2022/07/30 06:39:16;;;;;;;4.30;3.90;;;;;;;;;;4919449;29;20036;-46
2022/07/30 06:41:42;;;;;;;3.70;3.33;;;;;;;;;;4919086;29;20469;-42
2022/07/30 06:44:07;;;;;;;6.22;3.80;;;;;;;;;;4919375;29;20035;-42
2022/07/30 06:46:32;;;;;;;4.22;3.60;;;;;;;;;;4919048;29;20180;-42
2022/07/30 06:48:58;;;;;;;4.60;4.13;;;;;;;;;;4918989;29;20020;-42
2022/07/30 06:51:23;;;;;;;5.93;4.55;;;;;;;;;;4918843;29;20119;-42
2022/07/30 06:53:49;;;;;;;6.65;5.22;;;;;;;;;;4917764;29;20123;-44
2022/07/30 06:56:14;;;;;;;4.22;3.83;;;;;;;;;;4919112;29;20092;-42
2022/07/30 06:58:40;;;;;;;6.88;5.80;;;;;;;;;;4919096;29;20028;-44
2022/07/30 07:01:05;;;;;;;7.13;5.68;;;;;;;;;;4918385;29;20032;-42
2022/07/30 07:03:31;;;;;;;5.97;5.35;;;;;;;;;;4918630;29;20028;-44
2022/07/30 07:05:56;;;;;;;11.20;5.85;;;;;;;;;;4919034;29;20028;-42
2022/07/30 07:08:22;;;;;;;7.18;5.43;;;;;;;;;;4918709;29;20103;-46
2022/07/30 07:10:49;;;;;;;5.40;4.35;;;;;;;;;;4918636;29;20075;-45
2022/07/30 07:13:15;;;;;;;5.45;4.72;;;;;;;;;;4918901;29;20051;-44
2022/07/30 07:15:40;;;;;;;11.63;4.07;;;;;;;;;;4918622;29;20028;-45
2022/07/30 07:18:06;;;;;;;6.38;5.30;;;;;;;;;;4918733;29;20458;-46
2022/07/30 07:20:32;;;;;;;6.88;5.43;;;;;;;;;;4918442;29;20163;-42
2022/07/30 07:22:58;;;;;;;4.53;3.92;;;;;;;;;;4918376;29;20505;-42
2022/07/30 07:25:23;;;;;;;6.63;5.35;;;;;;;;;;4918493;29;20051;-42
2022/07/30 07:27:50;;;;;;;7.90;5.53;;;;;;;;;;4918303;29;20060;-45
2022/07/30 07:30:15;;;;;;;5.45;4.93;;;;;;;;;;4918444;29;20039;-46
2022/07/30 07:32:41;;;;;;;8.30;4.72;;;;;;;;;;4918239;29;20032;-42
2022/07/30 07:35:07;;;;;;;7.00;5.88;;;;;;;;;;4918448;29;20032;-47
2022/07/30 07:37:33;;;;;;;9.10;5.47;;;;;;;;;;4918433;29;20032;-45
2022/07/30 07:39:58;;;;;;;6.50;5.88;;;;;;;;;;4918121;29;20028;-43
2022/07/30 07:42:24;;;;;;;9.48;5.82;;;;;;;;;;4917992;29;20028;-48
2022/07/30 07:44:50;;;;;;;12.70;6.10;;;;;;;;;;4918315;29;20036;-43
2022/07/30 07:47:15;;;;;;;6.35;5.47;;;;;;;;;;4917688;29;20115;-44
2022/07/30 07:49:41;;;;;;;9.98;5.82;;;;;;;;;;4918133;29;20038;-44
2022/07/30 07:52:06;;;;;;;7.03;5.55;;;;;;;;;;4917823;29;20482;-46
2022/07/30 07:54:31;;;;;;;12.52;5.60;;;;;;;;;;4917794;29;20422;-46
2022/07/30 07:56:57;;;;;;;5.75;5.15;;;;;;;;;;4917723;29;20032;-45
2022/07/30 07:59:23;;;;;;;5.22;4.72;;;;;;;;;;4917647;29;20028;-46
2022/07/30 08:01:49;;;;;;;7.25;4.80;;;;;;;;;;4917690;29;20055;-49
2022/07/30 08:04:14;;;;;;;7.47;5.22;;;;;;;;;;4917847;29;20028;-46
2022/07/30 08:06:40;;;;;;;5.25;4.70;;;;;;;;;;4917492;29;20111;-44
2022/07/30 08:09:05;;;;;;;8.23;5.22;;;;;;;;;;4917394;29;20036;-43
2022/07/30 08:11:31;;;;;;;7.25;5.18;;;;;;;;;;4917695;29;20036;-45
2022/07/30 08:13:56;;;;;;;7.32;4.93;;;;;;;;;;4916545;29;20071;-41
2022/07/30 08:16:22;;;;;;;6.65;4.95;;;;;;;;;;4915978;29;20048;-42
2022/07/30 08:18:48;;;;;;;5.22;4.72;;;;;;;;;;4917517;29;20031;-42
2022/07/30 08:21:14;;;;;;;7.55;5.50;;;;;;;;;;4917108;29;20029;-42
2022/07/30 08:23:39;;;;;;;7.38;4.93;;;;;;;;;;4917237;29;20107;-41
2022/07/30 08:26:05;;;;;;;8.90;5.45;;;;;;;;;;4916279;29;20111;-44
2022/07/30 08:28:31;;;;;;;7.95;5.00;;;;;;;;;;4917438;29;20362;-50
2022/07/30 08:30:56;;;;;;;6.15;4.97;;;;;;;;;;4917125;29;20477;-44
2022/07/30 08:33:22;;;;;;;7.40;5.10;;;;;;;;;;4917506;29;20071;-44
2022/07/30 08:35:47;;;;;;;6.78;5.10;;;;;;;;;;4917392;29;20674;-44
2022/07/30 08:38:12;;;;;;;8.00;6.88;;;;;;;;;;4917171;29;20024;-45
2022/07/30 08:40:38;;;;;;;8.10;5.53;;;;;;;;;;4917398;29;20477;-42
2022/07/30 08:43:06;;;;;;;10.77;5.53;;;;;;;;;;4917198;29;20067;-42
2022/07/30 08:45:32;;;;;;;6.25;5.25;;;;;;;;;;4917377;29;20036;-45
2022/07/30 08:48:06;;;;;;;6.93;5.05;;;;;;;;;;4916781;29;20082;-42
2022/07/30 08:50:32;;;;;;;13.15;5.68;;;;;;;;;;4917098;29;20034;-42
2022/07/30 08:52:59;;;;;;;6.10;5.07;;;;;;;;;;4917107;29;20060;-44
2022/07/30 08:55:25;;;;;;;13.02;4.80;;;;;;;;;;4916809;29;20024;-44
2022/07/30 08:57:51;;;;;;;10.07;4.85;;;;;;;;;;4915511;29;20481;-42
2022/07/30 09:00:17;;;;;;;6.90;5.10;;;;;;;;;;4916654;29;20040;-44
2022/07/30 09:02:43;;;;;;;12.68;5.20;;;;;;;;;;4916958;29;20028;-47
2022/07/30 09:05:10;;;;;;;12.50;5.30;;;;;;;;;;4916710;29;20366;-45
2022/07/30 09:07:37;;;;;;;8.32;5.28;;;;;;;;;;4916907;29;20039;-43
2022/07/30 09:10:04;;;;;;;13.82;5.82;;;;;;;;;;4915252;29;20036;-43
2022/07/30 09:12:40;;;;;;;6.10;5.50;;;;;;;;;;4916834;29;20445;-42
2022/07/30 09:15:07;;;;;;;7.18;5.75;;;;;;;;;;4916581;29;20028;-45
2022/07/30 09:17:52;;;;;;;14.35;5.68;;;;;;;;;;4916459;29;20032;-43
2022/07/30 09:20:20;;;;;;;7.78;5.35;;;;;;;;;;4916788;29;20040;-45
2022/07/30 09:22:48;;;;;;;8.88;5.20;;;;;;;;;;4916636;29;20024;-46
2022/07/30 09:25:14;;;;;;;9.70;5.72;;;;;;;;;;4916354;29;20024;-45
2022/07/30 09:27:44;;;;;;;12.88;5.10;;;;;;;;;;4916382;29;20536;-42
2022/07/30 09:30:10;;;;;;;8.13;5.20;;;;;;;;;;4916544;29;20087;-45
2022/07/30 09:32:48;;;;;;;10.00;5.57;;;;;;;;;;4915049;29;20047;-42
2022/07/30 09:35:14;;;;;;;9.02;6.00;;;;;;;;;;4916551;29;20091;-42
2022/07/30 09:37:39;;;;;;;6.88;4.93;;;;;;;;;;4916259;29;20099;-42
2022/07/30 09:40:17;;;;;;;7.72;5.53;;;;;;;;;;4916305;29;20111;-47
2022/07/30 09:42:43;;;;;;;9.32;5.80;;;;;;;;;;4916472;29;20039;-43
2022/07/30 09:45:14;;;;;;;9.75;5.28;;;;;;;;;;4916259;29;20032;-44
2022/07/30 09:47:49;;;;;;;11.93;5.90;;;;;;;;;;4916126;29;20104;-42
2022/07/30 09:50:17;;;;;;;11.27;5.90;;;;;;;;;;4916341;29;20457;-44
2022/07/30 09:52:44;;;;;;;15.40;5.90;;;;;;;;;;4916122;29;20024;-45
2022/07/30 09:55:11;;;;;;;10.48;5.15;;;;;;;;;;4916131;29;20492;-44
2022/07/30 09:57:57;;;;;;;7.75;4.82;;;;;;;;;;4916104;29;20484;-46
2022/07/30 10:00:25;;;;;;;5.80;4.72;;;;;;;;;;4916316;29;20450;-41
2022/07/30 10:02:51;;;;;;;9.25;4.65;;;;;;;;;;4916120;29;20039;-47
2022/07/30 10:05:20;;;;;;;7.07;4.07;;;;;;;;;;4915958;29;20040;-44
2022/07/30 10:07:57;;;;;;;8.18;4.38;;;;;;;;;;4915791;29;20613;-47
2022/07/30 10:10:26;;;;;;;7.28;4.10;;;;;;;;;;4916033;29;20036;-45
2022/07/30 10:12:57;;;;;;;10.10;4.60;;;;;;;;;;4915852;29;20032;-43
2022/07/30 10:15:26;;;;;;;8.70;4.25;;;;;;;;;;4915346;29;20032;-41
2022/07/30 10:17:51;;;;;;;11.30;4.32;;;;;;;;;;4915799;29;20025;-42
2022/07/30 10:20:17;;;;;;;12.20;5.00;;;;;;;;;;4915746;29;20033;-41
2022/07/30 10:22:43;;;;;;;10.55;5.20;;;;;;;;;;4914281;29;20032;-45
2022/07/30 10:25:09;;;;;;;8.15;4.55;;;;;;;;;;4906054;29;20028;-42
2022/07/30 10:27:35;;;;;;;7.68;4.32;;;;;;;;;;4904762;29;20021;-47
2022/07/30 10:30:01;;;;;;;9.13;4.47;;;;;;;;;;4904420;29;20035;-44
2022/07/30 10:32:27;;;;;;;10.23;4.97;;;;;;;;;;4899342;29;20028;-47
2022/07/30 10:34:53;;;;;;;14.90;4.63;;;;;;;;;;4902986;29;20020;-48
2022/07/30 10:37:22;;;;;;;10.00;4.75;;;;;;;;;;4900155;29;20036;-41
2022/07/30 10:39:54;;;;;;;10.75;4.78;;;;;;;;;;4905111;29;20320;-41
2022/07/30 10:42:41;;;;;;;7.47;4.35;;;;;;;;;;4895914;29;20032;-40
2022/07/30 10:45:09;;;;;;;6.10;4.45;;;;;;;;;;4905853;29;20473;-41
2022/07/30 10:47:37;;;;;;;7.13;4.93;;;;;;;;;;4917549;29;20077;-41
2022/07/30 10:50:25;;;;;;;10.35;4.60;;;;;;;;;;4917344;29;20544;-41
2022/07/30 10:52:58;;;;;;;9.43;4.80;;;;;;;;;;4917859;29;20055;-41
2022/07/30 10:55:26;;;;;;;13.32;5.00;;;;;;;;;;4917505;29;20051;-39
2022/07/30 10:57:57;;;;;;;7.40;4.50;;;;;;;;;;4917740;29;20070;-41
2022/07/30 11:00:24;;;;;;;9.07;4.82;;;;;;;;;;4917024;29;20043;-41
2022/07/30 11:03:20;;;;;;;6.95;4.60;;;;;;;;;;4911280;29;20052;-40
2022/07/30 11:05:48;;;;;;;8.38;4.43;;;;;;;;;;4913664;29;20048;-40
2022/07/30 11:08:34;;;;;;;6.95;4.80;;;;;;;;;;4916138;29;20031;-41
2022/07/30 11:11:00;;;;;;;10.48;4.72;;;;;;;;;;4915319;29;21053;-40
2022/07/30 11:13:50;;;;;;;6.70;4.90;;;;;;;;;;4916005;29;20115;-41
2022/07/30 11:16:16;;;;;;;;;;;;;;;;;;4909893;29;20119;-39
2022/07/30 11:19:16;;;;;;;8.50;5.43;;;;;;;;;;4915345;29;20018;-42
2022/07/30 11:21:43;;;;;;;13.88;6.43;;;;;;;;;;4915299;29;20028;-42
2022/07/30 11:24:44;;;;;;;12.57;5.47;;;;;;;;;;4914623;29;20047;-44
2022/07/30 11:27:40;;;;;;;9.77;5.40;;;;;;;;;;4894570;29;20058;-44
2022/07/30 11:30:33;;;;;;;10.35;5.78;;;;;;;;;;4915617;29;20052;-45
2022/07/30 11:33:18;;;;;;;9.48;5.40;;;;;;;;;;4910206;29;20526;-42
2022/07/30 11:36:08;;;;;;;7.40;5.10;;;;;;;;;;4908236;29;20041;-42
2022/07/30 11:38:57;;;;;;;7.50;5.25;;;;;;;;;;4915565;29;20388;-42
2022/07/30 11:41:24;;;;;;;8.60;5.47;;;;;;;;;;4915211;29;20043;-46
2022/07/30 11:44:28;;;;;;;10.48;5.05;;;;;;;;;;4914965;29;20036;-47
2022/07/30 11:46:54;;;;;;;6.13;5.20;;;;;;;;;;4915166;29;20132;-46
2022/07/30 11:49:20;;;;;;;9.98;5.50;;;;;;;;;;4914141;29;20111;-49
2022/07/30 11:51:47;;;;;;;7.88;4.85;;;;;;;;;;4914835;29;20731;-46
2022/07/30 11:54:13;;;;;;;8.38;4.88;;;;;;;;;;4914900;29;20536;-49
2022/07/30 11:56:53;;;;;;;5.75;4.65;;;;;;;;;;4914701;29;20042;-47
2022/07/30 11:59:19;;;;;;;8.73;5.00;;;;;;;;;;4914722;29;20063;-51
2022/07/30 12:01:54;;;;;;;5.95;4.60;;;;;;;;;;4914671;29;20066;-49
2022/07/30 12:04:20;;;;;;;4.05;3.35;;;;;;;;;;4914440;29;20679;-48
2022/07/30 12:06:47;;;;;;;4.10;3.40;;;;;;;;;;4914510;29;20528;-51
2022/07/30 12:09:28;;;;;;;3.97;3.55;;;;;;;;;;4914502;29;20036;-50
2022/07/30 12:11:55;;;;;;;4.50;3.10;;;;;;;;;;4914567;29;20036;-48
2022/07/30 12:14:20;;;;;;;4.18;3.55;;;;;;;;;;4914501;29;20058;-48
2022/07/30 12:16:50;;;;;;;3.00;2.78;;;;;;;;;;4914542;29;20036;-48
2022/07/30 12:19:16;;;;;;;3.33;2.70;;;;;;;;;;4914809;29;20389;-52
2022/07/30 12:21:42;;;;;;;2.78;2.58;;;;;;;;;;4913700;29;20054;-52
2022/07/30 12:24:11;;;;;;;6.50;2.97;;;;;;;;;;4914531;29;20112;-48
2022/07/30 12:26:37;;;;;;;3.72;3.22;;;;;;;;;;4914590;29;20032;-49
2022/07/30 12:29:05;;;;;;;2.70;2.50;;;;;;;;;;4914272;29;20063;-48
2022/07/30 12:31:32;;;;;;;5.78;2.78;;;;;;;;;;4914296;29;20036;-47
2022/07/30 12:33:59;;;;;;;3.40;2.60;;;;;;;;;;4914117;29;20036;-48
2022/07/30 12:36:34;;;;;;;2.60;2.38;;;;;;;;;;4907789;29;20513;-48
2022/07/30 12:39:05;;;;;;;2.70;2.50;;;;;;;;;;4906547;29;20090;-57
2022/07/30 12:41:48;;;;;;;3.45;2.47;;;;;;;;;;4907744;29;20726;-55
2022/07/30 12:44:34;;;;;;;4.18;2.47;;;;;;;;;;4893631;29;20154;-48
2022/07/30 12:46:59;;;;;;;6.78;3.00;;;;;;;;;;4895083;29;20155;-47
2022/07/30 12:49:29;;;;;;;32.38;3.35;;;;;;;;;;4895230;29;20226;-46
2022/07/30 12:51:54;;;;;;;;;;;;;;;;;;4895481;29;20029;-49
2022/07/30 12:54:20;;;;;;;11.68;2.25;;;;;;;;;;4894957;29;19919;-50
2022/07/30 12:57:00;;;;;;;4.10;2.20;;;;;;;;;;4898718;29;20577;-47
2022/07/30 12:59:26;;;;;;;3.85;2.17;;;;;;;;;;4901561;29;20036;-47
2022/07/30 13:01:52;;;;;;;2.50;2.30;;;;;;;;;;4903444;29;20122;-47
2022/07/30 13:04:25;;;;;;;5.82;2.50;;;;;;;;;;4904889;29;20496;-49
2022/07/30 13:07:10;;;;;;;4.70;2.50;;;;;;;;;;4904267;29;20131;-47
2022/07/30 13:09:37;;;;;;;5.68;2.65;;;;;;;;;;4896562;29;20168;-48
2022/07/30 13:12:03;;;;;;;2.47;2.28;;;;;;;;;;4894461;29;20486;-47
2022/07/30 13:14:29;;;;;;;3.05;2.80;;;;;;;;;;4894979;29;20051;-46
2022/07/30 13:16:55;;;;;;;4.22;2.70;;;;;;;;;;4894559;29;20020;-48
2022/07/30 13:19:21;;;;;;;19.85;3.85;;;;;;;;;;4894735;29;20090;-47
2022/07/30 13:21:47;;;;;;;7.88;2.97;;;;;;;;;;4894569;29;20115;-48
2022/07/30 13:24:13;;;;;;;5.82;3.17;;;;;;;;;;4894768;29;20423;-47
2022/07/30 13:26:39;;;;;;;4.35;3.17;;;;;;;;;;4904485;29;20115;-49
2022/07/30 13:29:04;;;;;;;4.13;2.85;;;;;;;;;;4906701;29;20028;-50
2022/07/30 13:31:30;;;;;;;4.93;3.38;;;;;;;;;;4897980;29;20071;-47
2022/07/30 13:33:55;;;;;;;5.43;3.50;;;;;;;;;;4895790;29;20416;-47
2022/07/30 13:36:21;;;;;;;4.43;3.28;;;;;;;;;;4895104;29;20048;-56
2022/07/30 13:38:48;;;;;;;7.47;3.47;;;;;;;;;;4895922;29;20040;-47
2022/07/30 13:41:16;;;;;;;4.55;3.88;;;;;;;;;;4895763;29;20039;-48
2022/07/30 13:43:41;;;;;;;3.95;3.45;;;;;;;;;;4895702;29;20060;-47
2022/07/30 13:46:07;;;;;;;3.60;3.33;;;;;;;;;;4895718;29;20103;-47
2022/07/30 13:48:32;;;;;;;4.07;3.67;;;;;;;;;;4895553;29;20072;-49
2022/07/30 13:51:01;;;;;;;4.18;3.33;;;;;;;;;;4895190;29;20043;-48
2022/07/30 13:53:28;;;;;;;;;;;;;;;;;;4894727;29;20029;-47
2022/07/30 13:55:53;;;;;;;5.57;3.40;;;;;;;;;;4903321;29;20010;-47
2022/07/30 13:58:19;;;;;;;3.33;3.10;;;;;;;;;;4904561;29;20517;-47
2022/07/30 14:00:46;;;;;;;5.38;3.17;;;;;;;;;;4905008;29;20358;-48
2022/07/30 14:03:12;;;;;;;3.78;2.92;;;;;;;;;;4914711;29;20028;-48
2022/07/30 14:05:38;;;;;;;4.15;2.83;;;;;;;;;;4914473;29;20290;-48
2022/07/30 14:08:05;;;;;;;10.75;3.20;;;;;;;;;;4914752;29;20107;-48
2022/07/30 14:10:31;;;;;;;3.13;2.40;;;;;;;;;;4914308;29;20083;-49
2022/07/30 14:12:58;;;;;;;2.65;2.30;;;;;;;;;;4915120;29;20032;-47
2022/07/30 14:15:29;;;;;;;2.60;2.40;;;;;;;;;;4904318;29;20405;-47
2022/07/30 14:17:56;;;;;;;2.40;2.20;;;;;;;;;;4899666;29;20040;-50
2022/07/30 14:20:22;;;;;;;3.03;1.90;;;;;;;;;;4899004;29;20052;-54
2022/07/30 14:22:48;;;;;;;2.50;2.30;;;;;;;;;;4899286;29;20064;-56
2022/07/30 14:25:14;;;;;;;3.15;2.10;;;;;;;;;;4899195;29;20083;-53
2022/07/30 14:27:39;;;;;;;2.20;2.10;;;;;;;;;;4901587;29;20032;-54
2022/07/30 14:30:08;;;;;;;3.08;1.85;;;;;;;;;;4906415;29;20493;-55
2022/07/30 14:32:34;;;;;;;2.15;2.05;;;;;;;;;;4904856;29;20031;-57
2022/07/30 14:34:59;;;;;;;2.13;2.00;;;;;;;;;;4898673;29;20033;-54
2022/07/30 14:37:25;;;;;;;3.75;1.55;;;;;;;;;;4898739;29;20363;-47
2022/07/30 14:39:50;;;;;;;1.83;1.70;;;;;;;;;;4898783;29;20064;-47
2022/07/30 14:42:15;;;;;;;1.80;1.70;;;;;;;;;;4898573;29;20033;-49
2022/07/30 14:44:41;;;;;;;1.60;1.50;;;;;;;;;;4898755;29;20032;-47
2022/07/30 14:47:07;;;;;;;1.75;1.40;;;;;;;;;;4897592;29;20573;-48
2022/07/30 14:49:32;;;;;;;1.80;1.70;;;;;;;;;;4898764;29;20044;-48